sensor_id;sensor_type;location;lat;lon;timestamp;pressure;altitude;pressure_sealevel;temperature;humidity
58973;BME280;44750;52.040;7.472;2023-04-25T00:01:28;99326.13;;;7.41;58.11
58973;BME280;44750;52.040;7.472;2023-04-25T00:06:29;99322.97;;;7.37;54.48
58973;BME280;44750;52.040;7.472;2023-04-25T00:11:29;99344.31;;;7.39;50.75
58973;BME280;44750;52.040;7.472;2023-04-25T00:16:30;99359.63;;;7.38;47.22
58973;BME280;44750;52.040;7.472;2023-04-25T00:21:30;99385.19;;;7.34;42.92
58973;BME280;44750;52.040;7.472;2023-04-25T00:26:30;99414.97;;;7.32;37.95
58973;BME280;44750;52.040;7.472;2023-04-25T00:31:31;99443.75;;;7.32;32.66
58973;BME280;44750;52.040;7.472;2023-04-25T00:36:31;99480.09;;;7.36;27.02
58973;BME280;44750;52.040;7.472;2023-04-25T00:41:32;99512.56;;;7.34;23.08
58973;BME280;44750;52.040;7.472;2023-04-25T00:46:33;99563.91;;;7.41;18.75
58973;BME280;44750;52.040;7.472;2023-04-25T00:51:35;99595.38;;;7.41;15.24
58973;BME280;44750;52.040;7.472;2023-04-25T00:56:35;99616.28;;;7.47;12.29
58973;BME280;44750;52.040;7.472;2023-04-25T01:01:36;99642.34;;;7.46;9.13
58973;BME280;44750;52.040;7.472;2023-04-25T01:06:36;99677.00;;;7.41;6.75
58973;BME280;44750;52.040;7.472;2023-04-25T01:11:36;99683.63;;;7.29;4.14
58973;BME280;44750;52.040;7.472;2023-04-25T01:16:36;99706.56;;;7.15;0.47
58973;BME280;44750;52.040;7.472;2023-04-25T01:21:37;99736.72;;;7.18;0.00
58973;BME280;44750;52.040;7.472;2023-04-25T01:26:37;99755.94;;;7.06;0.00
58973;BME280;44750;52.040;7.472;2023-04-25T01:31:38;99784.00;;;7.03;0.00
58973;BME280;44750;52.040;7.472;2023-04-25T01:36:39;99817.59;;;7.17;0.00
58973;BME280;44750;52.040;7.472;2023-04-25T01:41:39;99847.38;;;7.15;0.00
58973;BME280;44750;52.040;7.472;2023-04-25T01:46:40;99879.97;;;7.12;0.00
58973;BME280;44750;52.040;7.472;2023-04-25T01:51:40;99908.53;;;7.23;0.00
58973;BME280;44750;52.040;7.472;2023-04-25T01:56:40;99912.28;;;7.12;0.00
58973;BME280;44750;52.040;7.472;2023-04-25T02:01:41;99910.06;;;6.98;0.00
58973;BME280;44750;52.040;7.472;2023-04-25T02:06:41;99925.13;;;6.91;0.00
58973;BME280;44750;52.040;7.472;2023-04-25T02:11:41;99948.16;;;7.03;0.00
58973;BME280;44750;52.040;7.472;2023-04-25T02:16:41;99944.25;;;6.88;0.00
58973;BME280;44750;52.040;7.472;2023-04-25T02:21:41;99951.31;;;6.89;0.00
58973;BME280;44750;52.040;7.472;2023-04-25T02:26:42;99956.72;;;6.89;0.00
58973;BME280;44750;52.040;7.472;2023-04-25T02:31:42;99967.47;;;6.89;0.00
58973;BME280;44750;52.040;7.472;2023-04-25T02:36:42;99966.66;;;6.78;0.00
58973;BME280;44750;52.040;7.472;2023-04-25T02:41:42;99954.78;;;6.71;0.00
58973;BME280;44750;52.040;7.472;2023-04-25T02:46:43;99956.38;;;6.64;0.00
58973;BME280;44750;52.040;7.472;2023-04-25T02:51:43;99971.50;;;6.75;0.00
58973;BME280;44750;52.040;7.472;2023-04-25T02:56:43;99989.16;;;6.87;0.00
58973;BME280;44750;52.040;7.472;2023-04-25T03:01:43;99979.97;;;6.80;0.00
58973;BME280;44750;52.040;7.472;2023-04-25T03:06:43;99988.16;;;6.88;0.00
58973;BME280;44750;52.040;7.472;2023-04-25T03:11:44;99984.22;;;6.82;0.00
58973;BME280;44750;52.040;7.472;2023-04-25T03:16:44;99979.41;;;6.76;0.66
58973;BME280;44750;52.040;7.472;2023-04-25T03:21:45;99998.91;;;6.88;0.37
58973;BME280;44750;52.040;7.472;2023-04-25T03:26:45;99977.13;;;6.81;1.62
58973;BME280;44750;52.040;7.472;2023-04-25T03:31:45;99989.88;;;6.79;2.55
58973;BME280;44750;52.040;7.472;2023-04-25T03:36:45;99994.25;;;6.80;2.78
58973;BME280;44750;52.040;7.472;2023-04-25T03:41:46;99976.16;;;6.73;4.17
58973;BME280;44750;52.040;7.472;2023-04-25T03:46:46;99980.00;;;6.70;4.96
58973;BME280;44750;52.040;7.472;2023-04-25T03:51:46;99985.41;;;6.60;5.69
58973;BME280;44750;52.040;7.472;2023-04-25T03:56:46;99991.88;;;6.67;6.26
58973;BME280;44750;52.040;7.472;2023-04-25T04:01:47;99994.41;;;6.69;7.73
58973;BME280;44750;52.040;7.472;2023-04-25T04:06:47;99985.56;;;6.59;10.65
58973;BME280;44750;52.040;7.472;2023-04-25T04:11:47;99986.53;;;6.58;12.86
58973;BME280;44750;52.040;7.472;2023-04-25T04:16:47;99978.06;;;6.52;14.75
58973;BME280;44750;52.040;7.472;2023-04-25T04:21:48;99989.66;;;6.63;15.45
58973;BME280;44750;52.040;7.472;2023-04-25T04:26:48;99975.63;;;6.59;17.88
58973;BME280;44750;52.040;7.472;2023-04-25T04:31:49;99967.03;;;6.46;19.85
58973;BME280;44750;52.040;7.472;2023-04-25T04:36:49;99974.38;;;6.53;20.70
58973;BME280;44750;52.040;7.472;2023-04-25T04:41:50;99962.50;;;6.46;22.81
58973;BME280;44750;52.040;7.472;2023-04-25T04:46:50;99965.19;;;6.46;23.75
58973;BME280;44750;52.040;7.472;2023-04-25T04:51:50;99962.09;;;6.41;24.49
58973;BME280;44750;52.040;7.472;2023-04-25T04:56:51;99977.22;;;6.52;23.69
58973;BME280;44750;52.040;7.472;2023-04-25T05:01:52;99983.56;;;6.61;24.75
58973;BME280;44750;52.040;7.472;2023-04-25T05:06:52;99975.50;;;6.51;25.92
58973;BME280;44750;52.040;7.472;2023-04-25T05:11:52;99987.53;;;6.57;25.51
58973;BME280;44750;52.040;7.472;2023-04-25T05:16:53;99986.97;;;6.63;24.90
58973;BME280;44750;52.040;7.472;2023-04-25T05:21:53;99980.03;;;6.60;26.52
58973;BME280;44750;52.040;7.472;2023-04-25T05:26:56;99968.59;;;6.48;27.74
58973;BME280;44750;52.040;7.472;2023-04-25T05:31:56;99966.19;;;6.45;29.93
58973;BME280;44750;52.040;7.472;2023-04-25T05:36:56;99945.25;;;6.39;34.26
58973;BME280;44750;52.040;7.472;2023-04-25T05:41:57;99958.09;;;6.55;39.90
58973;BME280;44750;52.040;7.472;2023-04-25T05:46:57;99952.41;;;6.68;44.72
58973;BME280;44750;52.040;7.472;2023-04-25T05:51:57;99917.88;;;6.63;52.69
58973;BME280;44750;52.040;7.472;2023-04-25T05:56:57;99904.69;;;6.70;57.88
58973;BME280;44750;52.040;7.472;2023-04-25T06:01:58;99913.50;;;6.90;62.03
58973;BME280;44750;52.040;7.472;2023-04-25T06:07:01;99891.25;;;6.98;68.17
58973;BME280;44750;52.040;7.472;2023-04-25T06:12:01;99855.13;;;7.00;75.07
58973;BME280;44750;52.040;7.472;2023-04-25T06:17:02;99837.59;;;7.14;81.60
58973;BME280;44750;52.040;7.472;2023-04-25T06:22:02;99804.00;;;7.18;88.35
58973;BME280;44750;52.040;7.472;2023-04-25T06:27:03;99796.28;;;7.24;94.84
58973;BME280;44750;52.040;7.472;2023-04-25T06:32:03;99772.41;;;7.39;98.30
58973;BME280;44750;52.040;7.472;2023-04-25T06:37:03;99748.84;;;7.41;100.00
58973;BME280;44750;52.040;7.472;2023-04-25T06:42:03;99758.38;;;7.79;100.00
58973;BME280;44750;52.040;7.472;2023-04-25T06:47:04;99750.69;;;7.93;100.00
58973;BME280;44750;52.040;7.472;2023-04-25T06:52:04;99708.72;;;7.82;100.00
58973;BME280;44750;52.040;7.472;2023-04-25T06:57:04;99696.09;;;7.82;100.00
58973;BME280;44750;52.040;7.472;2023-04-25T07:02:05;99682.00;;;7.97;100.00
58973;BME280;44750;52.040;7.472;2023-04-25T07:07:05;99673.59;;;7.92;100.00
58973;BME280;44750;52.040;7.472;2023-04-25T07:12:06;99651.63;;;8.21;100.00
58973;BME280;44750;52.040;7.472;2023-04-25T07:17:06;99621.44;;;8.09;100.00
58973;BME280;44750;52.040;7.472;2023-04-25T07:22:06;99619.97;;;8.40;100.00
58973;BME280;44750;52.040;7.472;2023-04-25T07:27:06;99601.59;;;8.43;100.00
58973;BME280;44750;52.040;7.472;2023-04-25T07:32:07;99616.50;;;9.05;100.00
58973;BME280;44750;52.040;7.472;2023-04-25T07:37:07;99590.19;;;8.82;100.00
58973;BME280;44750;52.040;7.472;2023-04-25T07:42:07;99633.47;;;10.26;100.00
58973;BME280;44750;52.040;7.472;2023-04-25T07:47:08;99578.44;;;9.48;100.00
58973;BME280;44750;52.040;7.472;2023-04-25T07:52:08;99628.63;;;10.21;100.00
58973;BME280;44750;52.040;7.472;2023-04-25T07:57:09;99583.56;;;9.74;100.00
58973;BME280;44750;52.040;7.472;2023-04-25T08:02:09;99591.75;;;9.49;100.00
58973;BME280;44750;52.040;7.472;2023-04-25T08:07:09;99571.56;;;9.20;100.00
58973;BME280;44750;52.040;7.472;2023-04-25T08:12:09;99559.00;;;8.80;100.00
58973;BME280;44750;52.040;7.472;2023-04-25T08:17:10;99576.16;;;9.20;100.00
58973;BME280;44750;52.040;7.472;2023-04-25T08:22:10;99621.31;;;10.30;100.00
58973;BME280;44750;52.040;7.472;2023-04-25T08:27:10;99594.16;;;10.70;100.00
58973;BME280;44750;52.040;7.472;2023-04-25T08:32:10;99567.53;;;10.97;100.00
58973;BME280;44750;52.040;7.472;2023-04-25T08:37:10;99542.34;;;11.11;100.00
58973;BME280;44750;52.040;7.472;2023-04-25T08:42:12;99491.28;;;11.08;100.00
58973;BME280;44750;52.040;7.472;2023-04-25T08:47:12;99469.66;;;10.70;100.00
58973;BME280;44750;52.040;7.472;2023-04-25T08:52:13;99487.25;;;11.04;100.00
58973;BME280;44750;52.040;7.472;2023-04-25T08:57:14;99398.16;;;10.11;100.00
58973;BME280;44750;52.040;7.472;2023-04-25T09:02:15;99407.69;;;9.84;100.00
58973;BME280;44750;52.040;7.472;2023-04-25T09:07:15;99496.59;;;11.16;100.00
58973;BME280;44750;52.040;7.472;2023-04-25T09:12:19;99435.59;;;11.20;100.00
58973;BME280;44750;52.040;7.472;2023-04-25T09:17:19;99336.94;;;11.30;100.00
58973;BME280;44750;52.040;7.472;2023-04-25T09:22:19;99329.06;;;11.35;100.00
58973;BME280;44750;52.040;7.472;2023-04-25T09:27:20;99239.09;;;10.96;100.00
58973;BME280;44750;52.040;7.472;2023-04-25T09:32:23;99162.78;;;10.49;100.00
58973;BME280;44750;52.040;7.472;2023-04-25T09:37:28;99208.84;;;10.93;100.00
58973;BME280;44750;52.040;7.472;2023-04-25T09:42:29;98984.72;;;10.53;100.00
58973;BME280;44750;52.040;7.472;2023-04-25T09:47:29;99028.03;;;10.60;100.00
58973;BME280;44750;52.040;7.472;2023-04-25T09:52:29;99005.75;;;11.14;98.39
58973;BME280;44750;52.040;7.472;2023-04-25T09:57:30;98845.41;;;11.32;94.42
58973;BME280;44750;52.040;7.472;2023-04-25T10:02:31;98725.78;;;11.22;92.75
58973;BME280;44750;52.040;7.472;2023-04-25T10:07:33;98605.56;;;10.63;94.15
58973;BME280;44750;52.040;7.472;2023-04-25T10:12:35;98829.97;;;11.26;95.05
58973;BME280;44750;52.040;7.472;2023-04-25T10:17:36;98701.41;;;11.15;94.27
58973;BME280;44750;52.040;7.472;2023-04-25T10:22:41;98524.94;;;11.45;90.46
58973;BME280;44750;52.040;7.472;2023-04-25T10:27:42;98209.06;;;10.74;89.05
58973;BME280;44750;52.040;7.472;2023-04-25T10:32:43;98121.88;;;10.19;90.60
58973;BME280;44750;52.040;7.472;2023-04-25T10:38:11;98475.19;;;9.37;100.00
58973;BME280;44750;52.040;7.472;2023-04-25T10:48:45;99102.44;;;9.08;100.00
58973;BME280;44750;52.040;7.472;2023-04-25T10:53:46;99216.31;;;9.26;100.00
58973;BME280;44750;52.040;7.472;2023-04-25T10:58:47;99062.94;;;8.92;100.00
58973;BME280;44750;52.040;7.472;2023-04-25T11:03:48;99252.13;;;9.43;100.00
58973;BME280;44750;52.040;7.472;2023-04-25T11:08:50;99186.78;;;9.93;100.00
58973;BME280;44750;52.040;7.472;2023-04-25T11:13:50;99131.53;;;9.65;100.00
58973;BME280;44750;52.040;7.472;2023-04-25T11:18:51;99350.38;;;9.42;100.00
58973;BME280;44750;52.040;7.472;2023-04-25T11:23:51;99433.13;;;9.35;100.00
58973;BME280;44750;52.040;7.472;2023-04-25T11:28:51;99243.22;;;9.58;100.00
58973;BME280;44750;52.040;7.472;2023-04-25T11:33:53;99166.53;;;10.70;100.00
58973;BME280;44750;52.040;7.472;2023-04-25T11:38:56;98897.97;;;10.96;100.00
58973;BME280;44750;52.040;7.472;2023-04-25T11:43:56;98423.03;;;10.59;96.89
58973;BME280;44750;52.040;7.472;2023-04-25T11:48:57;98487.09;;;11.05;93.03
58973;BME280;44750;52.040;7.472;2023-04-25T11:53:57;98387.47;;;11.66;87.84
58973;BME280;44750;52.040;7.472;2023-04-25T11:59:02;98281.44;;;11.87;85.71
58973;BME280;44750;52.040;7.472;2023-04-25T12:04:19;98085.16;;;11.51;85.01
58973;BME280;44750;52.040;7.472;2023-04-25T12:09:27;98230.53;;;11.39;88.66
58973;BME280;44750;52.040;7.472;2023-04-25T12:14:30;98303.63;;;11.46;90.91
58973;BME280;44750;52.040;7.472;2023-04-25T12:19:35;98463.06;;;11.81;92.49
58973;BME280;44750;52.040;7.472;2023-04-25T12:24:35;98713.66;;;12.25;97.82
58973;BME280;44750;52.040;7.472;2023-04-25T12:29:35;98820.06;;;11.80;100.00
58973;BME280;44750;52.040;7.472;2023-04-25T12:34:35;98933.38;;;11.43;100.00
58973;BME280;44750;52.040;7.472;2023-04-25T12:39:36;99233.03;;;10.28;100.00
58973;BME280;44750;52.040;7.472;2023-04-25T12:44:36;99320.16;;;10.38;100.00
58973;BME280;44750;52.040;7.472;2023-04-25T12:49:36;99031.47;;;10.47;100.00
58973;BME280;44750;52.040;7.472;2023-04-25T12:54:36;99066.00;;;10.95;100.00
58973;BME280;44750;52.040;7.472;2023-04-25T12:59:37;99098.63;;;11.71;100.00
58973;BME280;44750;52.040;7.472;2023-04-25T13:04:37;98838.81;;;11.82;100.00
58973;BME280;44750;52.040;7.472;2023-04-25T13:09:37;98602.44;;;10.79;100.00
58973;BME280;44750;52.040;7.472;2023-04-25T13:14:37;99196.28;;;10.85;100.00
58973;BME280;44750;52.040;7.472;2023-04-25T13:19:38;99286.59;;;10.99;100.00
58973;BME280;44750;52.040;7.472;2023-04-25T13:24:38;99416.00;;;11.18;100.00
58973;BME280;44750;52.040;7.472;2023-04-25T13:29:38;99392.63;;;11.17;100.00
58973;BME280;44750;52.040;7.472;2023-04-25T13:34:38;99202.53;;;10.85;100.00
58973;BME280;44750;52.040;7.472;2023-04-25T13:39:39;99034.56;;;11.64;100.00
58973;BME280;44750;52.040;7.472;2023-04-25T13:44:39;98767.31;;;11.76;100.00
58973;BME280;44750;52.040;7.472;2023-04-25T13:49:39;98524.88;;;11.59;100.00
58973;BME280;44750;52.040;7.472;2023-04-25T13:54:39;98416.81;;;11.82;100.00
58973;BME280;44750;52.040;7.472;2023-04-25T13:59:39;98043.56;;;11.02;96.65
58973;BME280;44750;52.040;7.472;2023-04-25T14:04:40;98400.31;;;11.45;98.44
58973;BME280;44750;52.040;7.472;2023-04-25T14:09:40;98269.47;;;11.38;97.48
58973;BME280;44750;52.040;7.472;2023-04-25T14:14:41;98165.78;;;11.31;96.98
58973;BME280;44750;52.040;7.472;2023-04-25T14:19:41;98195.75;;;10.72;100.00
58973;BME280;44750;52.040;7.472;2023-04-25T14:24:41;98930.28;;;10.69;100.00
58973;BME280;44750;52.040;7.472;2023-04-25T14:29:42;99125.88;;;10.63;100.00
58973;BME280;44750;52.040;7.472;2023-04-25T14:34:42;99150.13;;;11.43;100.00
58973;BME280;44750;52.040;7.472;2023-04-25T14:39:42;98521.66;;;11.03;100.00
58973;BME280;44750;52.040;7.472;2023-04-25T14:44:42;98679.94;;;10.94;100.00
58973;BME280;44750;52.040;7.472;2023-04-25T14:49:43;98712.66;;;11.12;100.00
58973;BME280;44750;52.040;7.472;2023-04-25T14:54:44;98499.13;;;11.36;100.00
58973;BME280;44750;52.040;7.472;2023-04-25T14:59:47;98466.19;;;11.84;100.00
58973;BME280;44750;52.040;7.472;2023-04-25T15:04:47;98202.91;;;11.30;100.00
58973;BME280;44750;52.040;7.472;2023-04-25T15:09:47;98189.56;;;10.97;100.00
58973;BME280;44750;52.040;7.472;2023-04-25T15:14:48;98522.88;;;11.20;100.00
58973;BME280;44750;52.040;7.472;2023-04-25T15:19:48;98396.41;;;10.69;100.00
58973;BME280;44750;52.040;7.472;2023-04-25T15:24:49;98539.59;;;10.91;100.00
58973;BME280;44750;52.040;7.472;2023-04-25T15:29:49;98561.22;;;11.17;100.00
58973;BME280;44750;52.040;7.472;2023-04-25T15:34:49;98136.81;;;11.06;98.72
58973;BME280;44750;52.040;7.472;2023-04-25T15:40:00;98000.38;;;10.88;94.91
58973;BME280;44750;52.040;7.472;2023-04-25T15:45:05;97981.91;;;11.04;93.28
58973;BME280;44750;52.040;7.472;2023-04-25T15:50:07;97996.63;;;10.90;95.08
58973;BME280;44750;52.040;7.472;2023-04-25T15:55:08;98304.97;;;10.84;99.96
58973;BME280;44750;52.040;7.472;2023-04-25T16:00:09;98580.41;;;11.23;100.00
58973;BME280;44750;52.040;7.472;2023-04-25T16:05:10;98112.38;;;10.87;99.24
58973;BME280;44750;52.040;7.472;2023-04-25T16:10:11;98117.53;;;10.64;100.00
58973;BME280;44750;52.040;7.472;2023-04-25T16:15:12;98308.63;;;10.04;100.00
58973;BME280;44750;52.040;7.472;2023-04-25T16:20:12;98534.94;;;9.69;100.00
58973;BME280;44750;52.040;7.472;2023-04-25T16:25:12;98704.97;;;9.49;100.00
58973;BME280;44750;52.040;7.472;2023-04-25T16:30:13;98807.59;;;9.27;100.00
58973;BME280;44750;52.040;7.472;2023-04-25T16:35:13;98988.56;;;9.49;100.00
58973;BME280;44750;52.040;7.472;2023-04-25T16:40:13;99031.69;;;9.57;100.00
58973;BME280;44750;52.040;7.472;2023-04-25T16:45:14;98959.38;;;9.23;100.00
58973;BME280;44750;52.040;7.472;2023-04-25T16:50:14;99044.94;;;9.37;100.00
58973;BME280;44750;52.040;7.472;2023-04-25T16:55:15;99105.25;;;9.29;100.00
58973;BME280;44750;52.040;7.472;2023-04-25T17:00:15;99148.66;;;9.43;100.00
58973;BME280;44750;52.040;7.472;2023-04-25T17:05:16;99210.44;;;9.61;100.00
58973;BME280;44750;52.040;7.472;2023-04-25T17:10:16;99233.53;;;9.63;100.00
58973;BME280;44750;52.040;7.472;2023-04-25T17:15:16;99196.69;;;9.85;100.00
58973;BME280;44750;52.040;7.472;2023-04-25T17:20:16;98924.28;;;9.23;100.00
58973;BME280;44750;52.040;7.472;2023-04-25T17:25:17;98919.75;;;9.45;100.00
58973;BME280;44750;52.040;7.472;2023-04-25T17:30:17;98787.78;;;9.63;100.00
58973;BME280;44750;52.040;7.472;2023-04-25T17:35:17;98627.03;;;9.46;100.00
58973;BME280;44750;52.040;7.472;2023-04-25T17:40:18;98656.50;;;9.41;100.00
58973;BME280;44750;52.040;7.472;2023-04-25T17:45:19;98597.38;;;9.52;100.00
58973;BME280;44750;52.040;7.472;2023-04-25T17:50:19;98461.38;;;9.18;100.00
58973;BME280;44750;52.040;7.472;2023-04-25T17:55:19;98577.63;;;9.17;100.00
58973;BME280;44750;52.040;7.472;2023-04-25T18:00:20;98574.66;;;8.83;100.00
58973;BME280;44750;52.040;7.472;2023-04-25T18:05:20;98658.97;;;8.34;100.00
58973;BME280;44750;52.040;7.472;2023-04-25T18:10:20;98803.16;;;8.23;100.00
58973;BME280;44750;52.040;7.472;2023-04-25T18:15:21;98931.41;;;8.17;100.00
58973;BME280;44750;52.040;7.472;2023-04-25T18:20:21;99047.06;;;8.04;100.00
58973;BME280;44750;52.040;7.472;2023-04-25T18:25:21;99275.59;;;8.00;100.00
58973;BME280;44750;52.040;7.472;2023-04-25T18:30:21;99397.06;;;7.82;100.00
58973;BME280;44750;52.040;7.472;2023-04-25T18:35:22;99523.34;;;7.85;100.00
58973;BME280;44750;52.040;7.472;2023-04-25T18:40:22;99558.69;;;7.82;100.00
58973;BME280;44750;52.040;7.472;2023-04-25T18:45:22;99699.81;;;7.90;100.00
58973;BME280;44750;52.040;7.472;2023-04-25T18:50:23;99730.06;;;7.75;100.00
58973;BME280;44750;52.040;7.472;2023-04-25T18:55:23;99795.81;;;7.64;100.00
58973;BME280;44750;52.040;7.472;2023-04-25T19:00:23;99835.91;;;7.67;100.00
58973;BME280;44750;52.040;7.472;2023-04-25T19:05:23;99902.09;;;7.70;100.00
58973;BME280;44750;52.040;7.472;2023-04-25T19:10:24;99909.47;;;7.32;100.00
58973;BME280;44750;52.040;7.472;2023-04-25T19:15:25;99951.63;;;7.41;100.00
58973;BME280;44750;52.040;7.472;2023-04-25T19:20:26;99995.13;;;7.18;100.00
58973;BME280;44750;52.040;7.472;2023-04-25T19:25:26;100072.50;;;7.44;100.00
58973;BME280;44750;52.040;7.472;2023-04-25T19:30:27;100047.41;;;7.16;100.00
58973;BME280;44750;52.040;7.472;2023-04-25T19:35:28;100099.75;;;7.41;100.00
58973;BME280;44750;52.040;7.472;2023-04-25T19:40:28;100112.38;;;7.31;100.00
58973;BME280;44750;52.040;7.472;2023-04-25T19:45:28;100114.53;;;7.17;100.00
58973;BME280;44750;52.040;7.472;2023-04-25T19:50:29;100143.56;;;7.24;100.00
58973;BME280;44750;52.040;7.472;2023-04-25T19:55:29;100166.50;;;7.38;100.00
58973;BME280;44750;52.040;7.472;2023-04-25T20:00:30;100143.44;;;7.25;100.00
58973;BME280;44750;52.040;7.472;2023-04-25T20:05:30;100162.84;;;7.19;100.00
58973;BME280;44750;52.040;7.472;2023-04-25T20:10:30;100174.03;;;7.14;100.00
58973;BME280;44750;52.040;7.472;2023-04-25T20:15:30;100179.03;;;7.09;100.00
58973;BME280;44750;52.040;7.472;2023-04-25T20:20:31;100176.75;;;7.05;100.00
58973;BME280;44750;52.040;7.472;2023-04-25T20:25:31;100178.03;;;7.00;100.00
58973;BME280;44750;52.040;7.472;2023-04-25T20:30:32;100181.00;;;6.97;100.00
58973;BME280;44750;52.040;7.472;2023-04-25T20:35:33;100186.38;;;6.88;100.00
58973;BME280;44750;52.040;7.472;2023-04-25T20:40:33;100190.19;;;6.85;100.00
58973;BME280;44750;52.040;7.472;2023-04-25T20:45:34;100177.19;;;6.71;100.00
58973;BME280;44750;52.040;7.472;2023-04-25T20:50:34;100201.13;;;6.74;100.00
58973;BME280;44750;52.040;7.472;2023-04-25T20:55:34;100179.31;;;6.67;100.00
58973;BME280;44750;52.040;7.472;2023-04-25T21:00:35;100198.84;;;6.59;100.00
58973;BME280;44750;52.040;7.472;2023-04-25T21:05:35;100210.72;;;6.57;100.00
58973;BME280;44750;52.040;7.472;2023-04-25T21:10:35;100217.38;;;6.62;100.00
58973;BME280;44750;52.040;7.472;2023-04-25T21:15:35;100218.94;;;6.65;100.00
58973;BME280;44750;52.040;7.472;2023-04-25T21:20:35;100219.50;;;6.78;100.00
58973;BME280;44750;52.040;7.472;2023-04-25T21:25:36;100212.47;;;6.77;100.00
58973;BME280;44750;52.040;7.472;2023-04-25T21:30:36;100210.75;;;6.76;100.00
58973;BME280;44750;52.040;7.472;2023-04-25T21:35:37;100207.34;;;6.64;100.00
58973;BME280;44750;52.040;7.472;2023-04-25T21:40:38;100225.72;;;6.59;100.00
58973;BME280;44750;52.040;7.472;2023-04-25T21:45:39;100237.06;;;6.63;100.00
58973;BME280;44750;52.040;7.472;2023-04-25T21:50:39;100223.88;;;6.50;100.00
58973;BME280;44750;52.040;7.472;2023-04-25T21:55:39;100236.72;;;6.46;100.00
58973;BME280;44750;52.040;7.472;2023-04-25T22:00:39;100215.66;;;6.32;100.00
58973;BME280;44750;52.040;7.472;2023-04-25T22:05:40;100204.09;;;6.10;100.00
58973;BME280;44750;52.040;7.472;2023-04-25T22:10:40;100217.91;;;5.96;100.00
58973;BME280;44750;52.040;7.472;2023-04-25T22:15:40;100218.75;;;5.96;100.00
58973;BME280;44750;52.040;7.472;2023-04-25T22:20:41;100240.28;;;6.06;100.00
58973;BME280;44750;52.040;7.472;2023-04-25T22:25:41;100225.81;;;5.97;100.00
58973;BME280;44750;52.040;7.472;2023-04-25T22:30:41;100245.31;;;5.90;100.00
58973;BME280;44750;52.040;7.472;2023-04-25T22:35:41;100236.78;;;5.84;100.00
58973;BME280;44750;52.040;7.472;2023-04-25T22:40:42;100229.16;;;5.80;100.00
58973;BME280;44750;52.040;7.472;2023-04-25T22:45:42;100223.56;;;5.72;100.00
58973;BME280;44750;52.040;7.472;2023-04-25T22:50:42;100228.16;;;5.60;100.00
58973;BME280;44750;52.040;7.472;2023-04-25T22:55:42;100222.78;;;5.60;100.00
58973;BME280;44750;52.040;7.472;2023-04-25T23:00:43;100224.38;;;5.62;100.00
58973;BME280;44750;52.040;7.472;2023-04-25T23:05:44;100232.03;;;5.67;100.00
58973;BME280;44750;52.040;7.472;2023-04-25T23:10:44;100222.09;;;5.58;100.00
58973;BME280;44750;52.040;7.472;2023-04-25T23:15:44;100220.06;;;5.50;100.00
58973;BME280;44750;52.040;7.472;2023-04-25T23:20:45;100237.38;;;5.57;100.00
58973;BME280;44750;52.040;7.472;2023-04-25T23:25:45;100220.34;;;5.47;100.00
58973;BME280;44750;52.040;7.472;2023-04-25T23:30:46;100221.59;;;5.43;100.00
58973;BME280;44750;52.040;7.472;2023-04-25T23:35:46;100229.88;;;5.40;100.00
58973;BME280;44750;52.040;7.472;2023-04-25T23:40:46;100219.28;;;5.38;100.00
58973;BME280;44750;52.040;7.472;2023-04-25T23:45:47;100223.94;;;5.36;100.00
58973;BME280;44750;52.040;7.472;2023-04-25T23:50:47;100217.19;;;5.21;100.00
58973;BME280;44750;52.040;7.472;2023-04-25T23:55:47;100222.84;;;5.17;100.00
